Time;durP1;ratioP1;P1;durP2;ratioP2;P2;SDS_P1;SDS_P2;PMS_P1;PMS_P2;Temp;Humidity;BMP_temperature;BMP_pressure;BME280_temperature;BME280_humidity;BME280_pressure;Samples;Min_cycle;Max_cycle;Signal;HPM_P1;HPM_P2
2021/06/15 00:00:11;;;;;;;13.43;6.90;;;;;;;21.36;70.20;100721.31;4790007;30;20046;-76
2021/06/15 00:03:16;;;;;;;11.48;7.47;;;;;;;21.29;70.53;100719.56;4791058;30;20058;-78
2021/06/15 00:06:21;;;;;;;14.90;7.68;;;;;;;21.18;70.78;100723.63;4789136;30;20059;-78
2021/06/15 00:09:25;;;;;;;14.32;7.95;;;;;;;21.11;71.04;100720.00;4791755;30;20071;-75
2021/06/15 00:12:29;;;;;;;12.90;7.30;;;;;;;21.04;71.16;100723.66;4791790;30;20055;-76
2021/06/15 00:15:34;;;;;;;13.50;8.27;;;;;;;21.06;71.15;100730.66;4790737;29;20059;-76
2021/06/15 00:18:39;;;;;;;12.10;8.02;;;;;;;20.98;71.06;100724.44;4791427;30;20515;-76
2021/06/15 00:21:43;;;;;;;11.23;8.15;;;;;;;20.91;71.48;100734.44;4791292;30;20059;-76
2021/06/15 00:24:47;;;;;;;14.38;8.05;;;;;;;20.94;71.30;100743.09;4791335;30;20058;-77
2021/06/15 00:27:52;;;;;;;14.43;9.00;;;;;;;21.02;70.89;100729.31;4791268;30;20051;-77
2021/06/15 00:30:56;;;;;;;11.60;7.72;;;;;;;21.01;70.83;100733.09;4791192;30;20062;-76
2021/06/15 00:34:01;;;;;;;10.77;7.43;;;;;;;20.98;70.55;100738.94;4790890;30;20058;-76
2021/06/15 00:37:05;;;;;;;10.05;6.78;;;;;;;20.95;70.64;100743.94;4791249;30;20051;-77
2021/06/15 00:40:10;;;;;;;12.35;7.25;;;;;;;20.90;70.79;100747.25;4791033;30;20055;-79
2021/06/15 00:43:15;;;;;;;14.50;7.38;;;;;;;20.91;70.83;100743.47;4791036;30;20047;-77
2021/06/15 00:46:19;;;;;;;12.25;7.07;;;;;;;20.95;70.84;100730.28;4790978;30;20055;-78
2021/06/15 00:49:26;;;;;;;11.98;7.30;;;;;;;20.94;70.37;100743.09;4790295;30;20062;-77
2021/06/15 00:52:31;;;;;;;12.55;7.60;;;;;;;20.91;70.29;100748.91;4780029;30;20076;-76
2021/06/15 00:55:36;;;;;;;14.20;7.90;;;;;;;20.87;70.20;100744.88;4790804;30;20063;-76
2021/06/15 00:58:41;;;;;;;11.85;7.47;;;;;;;20.80;70.60;100748.56;4779226;30;20062;-76
2021/06/15 01:01:48;;;;;;;12.10;8.00;;;;;;;20.72;70.65;100750.38;4790766;30;20408;-76
2021/06/15 01:04:53;;;;;;;12.80;7.57;;;;;;;20.72;70.79;100749.53;4790624;30;20058;-77
2021/06/15 01:08:22;;;;;;;19.63;7.97;;;;;;;20.59;71.13;100750.19;4779505;30;20058;-76
2021/06/15 01:11:55;;;;;;;10.23;7.43;;;;;;;20.56;71.39;100766.13;4779449;30;20059;-78
2021/06/15 01:15:02;;;;;;;11.73;7.68;;;;;;;20.43;71.85;100761.31;4779447;30;20068;-76
2021/06/15 01:18:15;;;;;;;15.15;7.28;;;;;;;20.41;72.10;100751.63;4779570;30;20056;-76
2021/06/15 01:21:21;;;;;;;13.15;7.20;;;;;;;20.39;71.82;100756.44;4790450;30;20044;-76
2021/06/15 01:24:34;;;;;;;9.13;7.18;;;;;;;20.42;72.15;100769.66;4790044;30;20058;-76
2021/06/15 01:27:57;;;;;;;13.25;7.55;;;;;;;20.37;72.13;100755.78;4789499;29;20078;-79
2021/06/15 01:31:08;;;;;;;12.63;8.27;;;;;;;20.40;72.17;100755.38;4789964;30;20047;-76
2021/06/15 01:34:17;;;;;;;13.82;7.50;;;;;;;20.28;72.72;100748.72;4790119;30;20054;-76
2021/06/15 01:37:35;;;;;;;10.20;7.10;;;;;;;20.30;72.87;100746.63;4778941;30;20055;-77
2021/06/15 01:40:53;;;;;;;11.95;6.93;;;;;;;20.12;74.08;100736.91;4778858;30;20775;-76
2021/06/15 01:44:07;;;;;;;12.18;7.20;;;;;;;19.99;74.75;100733.16;4778921;30;20051;-75
2021/06/15 01:47:12;;;;;;;11.50;7.53;;;;;;;19.95;75.04;100732.66;4789984;30;20055;-76
2021/06/15 01:50:21;;;;;;;13.07;7.38;;;;;;;19.86;74.53;100735.66;4778637;30;20050;-80
2021/06/15 01:53:28;;;;;;;10.77;7.13;;;;;;;19.73;74.24;100747.19;4778710;30;20058;-79
2021/06/15 01:56:42;;;;;;;9.80;6.30;;;;;;;19.77;73.73;100753.97;4771499;30;20080;-78
2021/06/15 02:00:01;;;;;;;13.90;6.05;;;;;;;19.86;72.99;100755.59;4735716;30;20174;-76
2021/06/15 02:02:54;;;;;;;12.05;6.00;;;;;;;19.98;72.39;100756.81;4728046;30;20557;-75
2021/06/15 02:06:07;;;;;;;9.65;5.95;;;;;;;20.05;71.28;100754.19;4734406;30;20061;-76
2021/06/15 02:09:14;;;;;;;8.40;5.45;;;;;;;20.15;71.27;100762.13;4734278;30;20062;-77
2021/06/15 02:12:45;;;;;;;9.90;6.00;;;;;;;20.22;71.00;100763.91;4734257;30;20603;-76
2021/06/15 02:16:10;;;;;;;14.20;6.32;;;;;;;20.27;71.02;100761.50;4734160;30;20052;-76
2021/06/15 02:19:48;;;;;;;13.00;6.68;;;;;;;20.27;71.16;100769.66;4738899;30;20063;-76
2021/06/15 02:22:55;;;;;;;9.63;6.30;;;;;;;20.31;70.54;100764.69;4723998;30;20060;-76
2021/06/15 02:26:04;;;;;;;12.85;7.07;;;;;;;20.26;70.64;100767.13;4734174;30;20571;-79
2021/06/15 02:29:12;;;;;;;14.23;7.10;;;;;;;20.30;70.81;100768.44;4734309;30;20052;-79
2021/06/15 02:32:23;;;;;;;13.13;7.47;;;;;;;20.25;71.07;100768.16;4723795;30;20509;-76
2021/06/15 02:35:29;;;;;;;12.55;7.38;;;;;;;20.23;71.04;100776.53;4726051;30;20081;-76
2021/06/15 02:39:07;;;;;;;10.18;7.03;;;;;;;20.19;71.35;100767.03;4767859;30;20051;-76
2021/06/15 02:42:15;;;;;;;11.25;7.60;;;;;;;20.16;71.54;100767.38;4794536;29;20051;-75
2021/06/15 02:45:35;;;;;;;12.57;7.97;;;;;;;20.13;71.55;100771.31;4777712;30;20055;-76
2021/06/15 02:48:45;;;;;;;14.10;8.15;;;;;;;20.08;71.84;100765.59;4769846;30;20500;-77
2021/06/15 02:52:11;;;;;;;11.05;8.00;;;;;;;20.08;71.97;100768.31;4770046;30;20047;-76
2021/06/15 02:55:27;;;;;;;11.73;7.65;;;;;;;20.07;72.07;100772.06;4771090;30;20051;-76
2021/06/15 02:58:33;;;;;;;13.20;7.68;;;;;;;20.09;71.99;100770.03;4770308;30;20104;-78
2021/06/15 03:01:49;;;;;;;10.95;8.05;;;;;;;20.15;72.05;100765.69;4769765;30;20066;-78
2021/06/15 03:04:57;;;;;;;10.73;7.65;;;;;;;20.15;72.26;100770.31;4770999;30;20054;-79
2021/06/15 03:08:03;;;;;;;13.68;8.80;;;;;;;20.08;72.41;100762.88;4770098;30;20055;-78
2021/06/15 03:11:08;;;;;;;11.80;7.93;;;;;;;20.04;72.88;100777.06;4770927;30;20396;-77
2021/06/15 03:14:22;;;;;;;15.90;8.57;;;;;;;20.01;72.74;100778.28;4770408;30;20055;-76
2021/06/15 03:17:31;;;;;;;10.35;8.20;;;;;;;20.08;72.86;100779.22;4769713;30;20044;-76
2021/06/15 03:20:41;;;;;;;13.57;8.88;;;;;;;20.06;72.80;100785.88;4769973;30;20055;-76
2021/06/15 03:23:53;;;;;;;10.88;8.23;;;;;;;20.04;72.98;100788.81;4770828;30;20058;-78
2021/06/15 03:27:07;;;;;;;12.57;9.60;;;;;;;20.00;72.93;100789.34;4770086;30;20056;-79
2021/06/15 03:30:18;;;;;;;13.82;8.85;;;;;;;19.97;72.75;100793.28;4769979;30;20044;-76
2021/06/15 03:33:25;;;;;;;11.38;9.50;;;;;;;19.80;72.92;100790.91;4770192;30;20497;-76
2021/06/15 03:36:36;;;;;;;14.77;9.95;;;;;;;19.68;73.34;100793.19;4770707;30;20060;-76
2021/06/15 03:39:41;;;;;;;17.13;10.32;;;;;;;19.62;73.42;100788.50;4769230;30;20417;-76
2021/06/15 03:42:46;;;;;;;11.52;9.90;;;;;;;19.60;73.71;100798.72;4759836;30;20427;-77
2021/06/15 03:46:12;;;;;;;15.65;9.43;;;;;;;19.60;73.98;100804.19;4769858;30;20048;-77
2021/06/15 03:49:17;;;;;;;12.85;8.85;;;;;;;19.64;74.35;100804.66;4783048;29;20054;-76
2021/06/15 03:52:28;;;;;;;13.15;8.05;;;;;;;19.60;74.68;100804.19;4791676;30;20055;-76
2021/06/15 03:55:37;;;;;;;9.95;7.90;;;;;;;19.75;74.25;100809.69;4791840;30;20135;-76
2021/06/15 03:58:43;;;;;;;15.50;8.80;;;;;;;19.80;73.51;100809.97;4791695;30;20066;-76
2021/06/15 04:01:51;;;;;;;14.35;9.23;;;;;;;19.79;73.14;100808.28;4791631;30;20060;-77
2021/06/15 04:04:57;;;;;;;12.75;9.48;;;;;;;19.74;73.19;100816.16;4791921;30;20409;-76
2021/06/15 04:08:05;;;;;;;12.57;8.50;;;;;;;19.73;73.22;100817.16;4791828;30;20135;-75
2021/06/15 04:11:11;;;;;;;13.43;8.80;;;;;;;19.90;72.61;100811.41;4780817;30;20066;-76
2021/06/15 04:14:16;;;;;;;12.65;8.00;;;;;;;20.22;72.15;100818.41;4780378;30;20055;-79
2021/06/15 04:17:25;;;;;;;15.63;8.85;;;;;;;20.42;71.20;100825.06;4791416;30;20047;-77
2021/06/15 04:20:34;;;;;;;11.43;7.72;;;;;;;20.69;69.83;100829.03;4791398;30;20054;-79
2021/06/15 04:24:04;;;;;;;10.52;7.82;;;;;;;20.87;68.97;100840.41;4791340;30;20058;-76
2021/06/15 04:27:08;;;;;;;11.73;7.47;;;;;;;21.23;68.11;100840.50;4780278;30;20055;-78
2021/06/15 04:30:15;;;;;;;11.80;7.32;;;;;;;21.60;67.18;100845.75;4791488;30;20070;-76
2021/06/15 04:33:25;;;;;;;13.73;7.63;;;;;;;21.86;65.49;100845.19;4791230;30;20054;-77
2021/06/15 04:36:32;;;;;;;11.05;7.45;;;;;;;22.13;64.54;100849.00;4790844;30;20066;-78
2021/06/15 04:39:47;;;;;;;11.20;7.93;;;;;;;22.38;63.35;100842.91;4791076;30;20421;-76
2021/06/15 04:42:57;;;;;;;9.65;7.60;;;;;;;22.74;62.32;100848.22;4780087;30;20058;-76
2021/06/15 04:46:18;;;;;;;18.13;7.72;;;;;;;23.01;61.04;100850.06;4791028;30;20062;-76
2021/06/15 04:49:30;;;;;;;12.15;7.50;;;;;;;23.27;60.57;100846.59;4790913;30;20480;-76
2021/06/15 04:52:37;;;;;;;18.53;7.93;;;;;;;23.55;59.09;100852.88;4780090;30;20503;-76
2021/06/15 04:55:43;;;;;;;11.48;6.97;;;;;;;23.97;57.94;100850.81;4790835;30;20064;-76
2021/06/15 04:58:48;;;;;;;13.45;6.65;;;;;;;24.36;56.44;100851.72;4790730;30;20054;-76
2021/06/15 05:01:52;;;;;;;14.43;6.97;;;;;;;24.55;55.94;100853.59;4790617;29;20064;-76
2021/06/15 05:04:57;;;;;;;9.82;6.78;;;;;;;24.89;55.47;100852.47;4790381;30;20048;-76
2021/06/15 05:08:06;;;;;;;15.43;6.50;;;;;;;25.39;53.76;100853.56;4790527;30;20055;-74
2021/06/15 05:11:10;;;;;;;9.30;6.25;;;;;;;25.67;53.05;100858.75;4790625;30;20082;-76
2021/06/15 05:14:17;;;;;;;12.88;6.40;;;;;;;26.63;51.10;100849.09;4779384;30;20062;-74
2021/06/15 05:17:24;;;;;;;7.20;5.32;;;;;;;27.18;49.08;100851.91;4790138;30;20425;-77
2021/06/15 05:20:32;;;;;;;9.15;5.80;;;;;;;27.49;47.16;100846.22;4790839;30;20058;-76
2021/06/15 05:23:43;;;;;;;15.63;7.20;;;;;;;28.61;44.49;100851.72;4768839;30;20067;-76
2021/06/15 05:26:48;;;;;;;13.07;6.47;;;;;;;29.28;43.74;100863.19;4790328;30;20047;-78
2021/06/15 05:29:53;;;;;;;10.10;5.30;;;;;;;30.20;41.19;100854.47;4790272;30;20058;-78
2021/06/15 05:32:57;;;;;;;7.13;5.03;;;;;;;31.18;39.39;100851.03;4789705;29;20062;-78
2021/06/15 05:36:02;;;;;;;8.40;5.00;;;;;;;31.36;38.92;100855.38;4772233;30;20064;-77
2021/06/15 05:39:06;;;;;;;9.80;4.60;;;;;;;32.87;36.84;100856.03;4772495;30;20058;-76
2021/06/15 05:42:12;;;;;;;11.80;5.13;;;;;;;33.33;35.15;100860.78;4789638;30;20067;-76
2021/06/15 05:45:16;;;;;;;9.93;4.05;;;;;;;34.01;33.87;100854.00;4778814;30;20055;-77
2021/06/15 05:48:21;;;;;;;7.00;4.10;;;;;;;34.48;33.73;100859.34;4789636;30;20066;-77
2021/06/15 05:51:26;;;;;;;8.18;4.70;;;;;;;34.76;32.47;100867.16;4789557;30;20058;-77
2021/06/15 05:54:31;;;;;;;8.75;4.22;;;;;;;35.02;32.08;100868.75;4789808;30;20062;-76
2021/06/15 05:57:35;;;;;;;6.88;4.28;;;;;;;35.53;31.45;100866.66;4789654;30;20064;-76
2021/06/15 06:00:41;;;;;;;10.18;4.57;;;;;;;36.39;30.00;100866.91;4789690;30;20407;-77
2021/06/15 06:03:52;;;;;;;13.85;4.30;;;;;;;36.77;30.07;100869.94;4789549;30;20062;-76
2021/06/15 06:10:20;;;;;;;8.43;4.90;;;;;;;37.58;28.29;100876.31;4776484;29;20497;-76
2021/06/15 06:13:24;;;;;;;12.77;4.30;;;;;;;38.25;27.13;100871.41;4780437;29;20058;-77
2021/06/15 06:16:29;;;;;;;8.23;4.10;;;;;;;37.91;28.51;100882.03;4777464;29;20058;-76
2021/06/15 06:19:34;;;;;;;9.40;4.38;;;;;;;38.42;27.25;100876.50;4786681;29;20072;-77
2021/06/15 06:22:40;;;;;;;11.00;4.47;;;;;;;38.95;27.13;100872.16;4785704;29;20062;-77
2021/06/15 06:28:11;;;;;;;9.02;4.63;;;;;;;40.25;25.35;100876.94;4770953;30;20044;-78
2021/06/15 06:31:16;;;;;;;12.27;5.30;;;;;;;40.91;24.60;100880.91;4771237;30;20071;-77
2021/06/15 06:34:20;;;;;;;10.93;4.45;;;;;;;41.71;23.94;100890.97;4770893;30;20052;-76
2021/06/15 06:37:24;;;;;;;8.70;4.05;;;;;;;41.74;23.31;100885.53;4770983;30;20047;-76
2021/06/15 06:40:29;;;;;;;12.57;4.57;;;;;;;41.70;24.07;100883.69;4770649;30;20393;-75
2021/06/15 06:43:36;;;;;;;11.68;4.28;;;;;;;42.93;23.17;100885.81;4776722;30;20058;-76
2021/06/15 06:46:40;;;;;;;13.18;4.85;;;;;;;43.79;21.68;100874.91;4788384;30;20062;-76
2021/06/15 06:49:45;;;;;;;14.13;4.97;;;;;;;43.96;21.41;100872.78;4767676;30;20059;-76
2021/06/15 06:52:50;;;;;;;16.35;5.35;;;;;;;42.94;22.80;100879.81;4779818;29;20051;-79
2021/06/15 06:55:55;;;;;;;10.93;5.00;;;;;;;44.46;21.38;100880.34;4785682;29;20039;-80
2021/06/15 06:59:00;;;;;;;8.27;4.30;;;;;;;45.10;20.49;100880.66;4749386;30;20055;-78
2021/06/15 07:02:05;;;;;;;11.68;4.45;;;;;;;45.35;20.40;100878.69;4765347;29;20062;-82
2021/06/15 07:05:11;;;;;;;10.60;4.10;;;;;;;45.55;20.12;100880.56;4749106;30;20054;-79
2021/06/15 07:08:15;;;;;;;11.82;6.72;;;;;;;46.47;19.53;100884.25;4749596;30;20051;-76
2021/06/15 07:11:20;;;;;;;18.75;8.18;;;;;;;46.86;19.22;100888.22;4749108;30;20515;-77
2021/06/15 07:14:25;;;;;;;11.35;4.93;;;;;;;46.59;19.73;100884.22;4762606;30;20047;-82
2021/06/15 07:17:30;;;;;;;10.30;4.03;;;;;;;47.94;18.71;100877.94;4756675;30;20062;-78
2021/06/15 07:20:34;;;;;;;11.82;4.50;;;;;;;48.35;17.89;100878.41;4756857;30;20060;-78
2021/06/15 07:23:40;;;;;;;9.82;4.43;;;;;;;46.29;20.04;100880.06;4765757;30;20049;-76
2021/06/15 07:26:45;;;;;;;9.82;4.03;;;;;;;46.92;19.78;100892.41;4744383;30;20059;-77
2021/06/15 07:29:50;;;;;;;8.77;4.32;;;;;;;47.79;18.39;100886.50;4767958;30;20059;-76
2021/06/15 07:32:58;;;;;;;8.45;3.90;;;;;;;48.17;17.81;100883.75;4766051;29;20485;-77
2021/06/15 07:36:04;;;;;;;8.25;3.45;;;;;;;48.92;16.82;100884.88;4758446;30;20054;-79
2021/06/15 07:39:08;;;;;;;9.25;4.05;;;;;;;48.66;17.07;100886.78;4764745;30;20058;-77
2021/06/15 07:42:13;;;;;;;10.10;3.42;;;;;;;47.04;17.97;100886.63;4762503;30;20416;-76
2021/06/15 07:45:17;;;;;;;10.45;3.30;;;;;;;46.81;18.11;100885.63;4774042;30;20063;-83
2021/06/15 07:48:22;;;;;;;8.38;3.72;;;;;;;47.97;17.68;100870.66;4773312;30;20059;-78
2021/06/15 07:51:27;;;;;;;6.88;3.30;;;;;;;47.50;17.76;100874.47;4762411;30;20064;-78
2021/06/15 07:54:31;;;;;;;17.10;3.70;;;;;;;46.76;18.17;100871.69;4762821;30;20055;-78
2021/06/15 07:57:35;;;;;;;12.75;9.23;;;;;;;46.17;18.55;100869.59;4780263;30;20441;-81
2021/06/15 08:00:40;;;;;;;16.50;7.38;;;;;;;46.83;18.41;100866.19;4780573;30;20051;-77
2021/06/15 08:03:45;;;;;;;12.00;3.53;;;;;;;47.11;18.04;100866.97;4791498;30;20082;-80
2021/06/15 08:06:50;;;;;;;7.03;3.53;;;;;;;46.29;18.68;100863.84;4790556;29;20127;-81
2021/06/15 08:09:56;;;;;;;12.02;4.18;;;;;;;43.82;20.54;100866.56;4790888;30;20054;-79
2021/06/15 08:13:02;;;;;;;5.40;2.95;;;;;;;40.92;23.21;100865.63;4785169;29;20082;-82
2021/06/15 08:16:06;;;;;;;9.27;3.75;;;;;;;37.69;26.48;100858.22;4788291;30;20066;-75
2021/06/15 08:19:11;;;;;;;8.50;3.55;;;;;;;36.24;27.62;100864.28;4779000;29;20063;-76
2021/06/15 08:22:17;;;;;;;9.38;3.40;;;;;;;34.94;29.77;100863.75;4790888;30;20066;-77
2021/06/15 08:25:21;;;;;;;14.77;4.28;;;;;;;33.09;31.93;100865.09;4790832;30;20396;-77
2021/06/15 08:28:26;;;;;;;8.10;3.85;;;;;;;31.98;34.33;100861.41;4791266;30;20066;-76
2021/06/15 08:31:31;;;;;;;7.70;4.15;;;;;;;31.46;35.69;100859.16;4790722;30;20514;-75
2021/06/15 08:34:37;;;;;;;9.50;4.18;;;;;;;31.51;35.45;100859.22;4787840;29;20054;-76
2021/06/15 08:37:42;;;;;;;8.07;3.58;;;;;;;31.48;35.07;100859.72;4778337;30;20054;-77
2021/06/15 08:40:51;;;;;;;13.98;3.88;;;;;;;30.79;35.44;100850.16;4790737;30;20408;-76
2021/06/15 08:43:56;;;;;;;7.05;3.67;;;;;;;30.50;35.64;100861.63;4790722;30;20441;-75
2021/06/15 08:47:00;;;;;;;13.10;4.68;;;;;;;29.96;37.27;100857.63;4790267;29;20078;-78
2021/06/15 08:50:06;;;;;;;7.95;2.90;;;;;;;30.05;37.47;100865.28;4779233;30;20055;-77
2021/06/15 08:53:11;;;;;;;10.48;3.83;;;;;;;29.89;36.93;100866.09;4779510;30;20066;-77
2021/06/15 08:56:31;;;;;;;9.02;3.65;;;;;;;29.59;37.53;100859.94;4790206;30;20051;-77
2021/06/15 08:59:36;;;;;;;11.60;3.70;;;;;;;29.91;37.38;100847.31;4790326;30;20058;-83
2021/06/15 09:02:47;;;;;;;9.25;3.83;;;;;;;29.67;37.73;100865.09;4790114;29;20408;-80
2021/06/15 09:05:52;;;;;;;8.30;3.92;;;;;;;29.58;37.61;100858.25;4790050;30;20057;-79
2021/06/15 09:08:59;;;;;;;9.07;3.30;;;;;;;29.46;36.72;100855.53;4790306;30;20060;-76
2021/06/15 09:12:04;;;;;;;5.80;3.17;;;;;;;29.38;37.21;100863.41;4789904;30;20054;-76
2021/06/15 09:15:18;;;;;;;9.20;3.75;;;;;;;29.51;38.39;100854.78;4788240;29;20054;-77
2021/06/15 09:18:30;;;;;;;6.38;3.30;;;;;;;29.23;36.66;100861.16;4788804;29;20074;-79
2021/06/15 09:21:39;;;;;;;9.73;2.90;;;;;;;28.91;37.46;100862.63;4787599;29;20113;-77
2021/06/15 09:24:45;;;;;;;6.97;2.42;;;;;;;28.96;37.11;100859.97;4782630;29;20070;-78
2021/06/15 09:27:50;;;;;;;6.07;2.50;;;;;;;29.16;37.45;100859.59;4787851;29;20532;-78
2021/06/15 09:30:55;;;;;;;8.00;3.03;;;;;;;29.13;36.17;100858.16;4789917;30;20054;-75
2021/06/15 09:33:59;;;;;;;7.22;2.85;;;;;;;29.25;36.48;100864.50;4789466;30;20412;-79
2021/06/15 09:37:05;;;;;;;9.27;2.70;;;;;;;29.34;35.46;100862.19;4778484;30;20058;-77
2021/06/15 09:40:23;;;;;;;7.15;2.30;;;;;;;29.57;34.78;100862.13;4789364;30;20404;-77
2021/06/15 09:43:27;;;;;;;7.05;2.30;;;;;;;29.21;35.20;100852.25;4789537;30;20051;-76
2021/06/15 09:46:51;;;;;;;7.13;2.63;;;;;;;28.92;35.95;100856.00;4787002;30;20069;-76
2021/06/15 09:49:55;;;;;;;13.15;2.55;;;;;;;29.05;35.00;100850.22;4788432;30;20067;-77
2021/06/15 09:52:59;;;;;;;7.75;2.30;;;;;;;29.11;35.52;100851.19;4788647;29;20059;-79
2021/06/15 09:56:06;;;;;;;5.07;2.78;;;;;;;29.37;34.87;100856.16;4788099;29;20419;-78
2021/06/15 09:59:10;;;;;;;4.13;2.22;;;;;;;29.22;34.99;100842.88;4774897;29;20069;-76
2021/06/15 10:02:18;;;;;;;7.70;2.30;;;;;;;29.45;34.70;100841.97;4789511;30;20407;-76
2021/06/15 10:05:38;;;;;;;6.22;2.53;;;;;;;29.19;34.67;100845.25;4787544;29;20066;-82
2021/06/15 10:08:45;;;;;;;5.45;2.53;;;;;;;28.96;34.41;100844.22;4787893;29;20067;-78
2021/06/15 10:11:52;;;;;;;4.72;2.58;;;;;;;29.01;35.17;100835.19;4788440;30;20404;-80
2021/06/15 10:14:56;;;;;;;10.35;2.28;;;;;;;29.16;34.88;100831.94;4788574;30;20066;-76
2021/06/15 10:18:03;;;;;;;17.85;15.50;;;;;;;29.34;34.94;100838.13;4788850;30;20058;-76
2021/06/15 10:21:08;;;;;;;7.82;3.33;;;;;;;29.21;34.87;100834.84;4788414;30;20051;-77
2021/06/15 10:24:14;;;;;;;5.82;2.95;;;;;;;29.22;34.47;100825.44;4788629;30;20062;-76
2021/06/15 10:27:19;;;;;;;5.97;2.58;;;;;;;28.99;34.25;100829.91;4777511;30;20055;-79
2021/06/15 10:30:32;;;;;;;6.90;2.30;;;;;;;28.91;34.57;100824.75;4759600;30;20058;-75
2021/06/15 10:33:45;;;;;;;5.75;2.78;;;;;;;28.76;35.03;100821.63;4770676;30;20055;-80
2021/06/15 10:36:50;;;;;;;7.70;2.45;;;;;;;28.68;34.96;100821.19;4770064;30;20055;-76
2021/06/15 10:39:55;;;;;;;5.38;2.40;;;;;;;28.84;34.86;100815.75;4787358;29;20058;-76
2021/06/15 10:43:17;;;;;;;7.75;2.17;;;;;;;28.83;35.59;100807.72;4785716;30;20502;-77
2021/06/15 10:46:21;;;;;;;8.60;2.25;;;;;;;28.95;34.64;100808.53;4785456;30;20062;-77
2021/06/15 10:49:26;;;;;;;6.88;3.20;;;;;;;28.97;35.08;100800.81;4788284;30;20092;-80
2021/06/15 10:53:02;;;;;;;4.60;2.40;;;;;;;29.05;36.24;100799.59;4787970;30;20070;-76
2021/06/15 10:56:08;;;;;;;5.50;2.50;;;;;;;29.16;34.48;100798.75;4787369;30;20058;-78
2021/06/15 10:59:13;;;;;;;7.90;2.40;;;;;;;29.21;35.98;100801.66;4787966;30;20058;-77
2021/06/15 11:02:17;;;;;;;8.02;1.90;;;;;;;29.37;34.46;100795.31;4787252;30;20058;-77
2021/06/15 11:05:41;;;;;;;5.38;2.28;;;;;;;29.13;34.24;100789.00;4776506;30;20107;-77
2021/06/15 11:08:46;;;;;;;5.28;1.95;;;;;;;29.20;34.96;100794.41;4788685;30;20072;-76
2021/06/15 11:12:01;;;;;;;11.07;6.05;;;;;;;29.04;34.34;100784.94;4776554;30;20055;-79
2021/06/15 11:15:13;;;;;;;6.72;3.70;;;;;;;29.01;34.09;100786.25;4786928;30;20063;-79
2021/06/15 11:18:18;;;;;;;6.50;2.42;;;;;;;28.95;34.80;100780.88;4776704;30;20503;-80
2021/06/15 11:21:27;;;;;;;5.05;2.05;;;;;;;29.08;34.92;100775.09;4787293;30;20054;-82
2021/06/15 11:25:00;;;;;;;9.90;2.30;;;;;;;29.09;34.34;100778.66;4787708;29;20522;-79
2021/06/15 11:28:38;;;;;;;7.53;2.97;;;;;;;29.01;34.28;100774.34;4776752;30;20047;-79
2021/06/15 11:31:42;;;;;;;6.97;2.58;;;;;;;28.98;35.34;100764.66;4786621;30;20054;-78
2021/06/15 11:34:53;;;;;;;5.35;2.17;;;;;;;29.21;34.92;100768.47;4788314;30;20070;-79
2021/06/15 11:38:03;;;;;;;3.72;2.20;;;;;;;29.35;35.15;100767.06;4776431;30;20054;-82
2021/06/15 11:41:08;;;;;;;5.00;2.55;;;;;;;29.41;34.79;100764.13;4787381;30;20510;-81
2021/06/15 11:44:55;;;;;;;3.70;2.15;;;;;;;29.12;33.87;100756.06;4786469;29;20066;-78
2021/06/15 11:48:34;;;;;;;5.13;2.47;;;;;;;29.19;34.58;100760.38;4785578;30;20067;-83
2021/06/15 11:51:39;;;;;;;5.03;2.30;;;;;;;29.27;35.10;100735.13;4773359;30;20416;-79
2021/06/15 11:54:43;;;;;;;8.07;2.75;;;;;;;29.07;33.94;100747.66;4786824;30;20240;-78
2021/06/15 11:57:48;;;;;;;6.45;2.33;;;;;;;29.17;35.25;100745.94;4786541;30;20050;-78
2021/06/15 12:01:03;;;;;;;9.57;2.65;;;;;;;29.17;35.20;100740.41;4786497;30;20070;-77
2021/06/15 12:04:08;;;;;;;4.80;2.13;;;;;;;29.39;35.03;100730.38;4787679;30;20058;-78
2021/06/15 12:07:16;;;;;;;6.82;1.92;;;;;;;29.35;35.11;100725.59;4786715;30;20054;-79
2021/06/15 12:10:22;;;;;;;5.97;2.25;;;;;;;29.25;34.75;100734.53;4786447;29;20058;-78
2021/06/15 12:13:29;;;;;;;5.57;2.33;;;;;;;29.24;34.16;100737.53;4788888;30;20074;-77
2021/06/15 12:16:34;;;;;;;6.38;2.47;;;;;;;29.18;33.92;100716.38;4788946;30;20058;-77
2021/06/15 12:19:38;;;;;;;5.40;2.10;;;;;;;29.23;34.56;100710.97;4788951;30;20062;-78
2021/06/15 12:22:43;;;;;;;3.47;2.38;;;;;;;29.11;34.43;100713.75;4789071;30;20081;-82
2021/06/15 12:25:48;;;;;;;6.32;2.58;;;;;;;29.25;34.85;100703.25;4790335;30;20055;-85
2021/06/15 12:28:59;;;;;;;7.60;2.20;;;;;;;29.18;34.58;100717.22;4791547;30;20193;-87
2021/06/15 12:32:03;;;;;;;8.45;2.38;;;;;;;29.11;35.20;100705.44;4791408;30;20074;-76
2021/06/15 12:35:19;;;;;;;6.72;2.33;;;;;;;29.27;36.37;100701.09;4780014;30;20062;-77
2021/06/15 12:38:23;;;;;;;4.93;2.50;;;;;;;29.29;34.14;100705.28;4780128;30;20050;-75
2021/06/15 12:41:28;;;;;;;5.55;2.38;;;;;;;29.11;34.52;100697.16;4791086;30;20050;-77
2021/06/15 12:44:39;;;;;;;9.10;2.70;;;;;;;29.16;34.57;100704.72;4791240;30;20047;-79
2021/06/15 12:47:46;;;;;;;13.98;2.63;;;;;;;29.22;36.35;100692.69;4790663;30;20054;-78
2021/06/15 12:51:08;;;;;;;5.03;2.25;;;;;;;29.36;35.75;100694.88;4790908;30;20056;-76
2021/06/15 12:54:37;;;;;;;6.18;2.30;;;;;;;29.43;35.83;100684.50;4779683;30;20058;-77
2021/06/15 12:58:02;;;;;;;4.65;2.60;;;;;;;29.56;34.68;100673.13;4787899;29;20066;-79
2021/06/15 13:01:34;;;;;;;8.90;2.63;;;;;;;29.46;34.53;100672.94;4782653;30;20127;-79
2021/06/15 13:04:45;;;;;;;9.30;2.78;;;;;;;29.40;35.20;100673.13;4789944;30;20054;-82
2021/06/15 13:07:59;;;;;;;8.40;2.70;;;;;;;29.36;34.57;100674.69;4789669;30;20058;-78
2021/06/15 13:11:14;;;;;;;7.57;2.72;;;;;;;29.47;35.00;100659.94;4779055;30;20066;-80
2021/06/15 13:14:23;;;;;;;5.13;2.75;;;;;;;29.51;33.84;100658.34;4778438;29;20075;-80
2021/06/15 13:17:30;;;;;;;6.35;2.33;;;;;;;29.43;34.94;100644.97;4778758;30;20074;-77
2021/06/15 13:20:36;;;;;;;12.00;2.67;;;;;;;29.38;35.33;100650.41;4790127;30;20435;-78
2021/06/15 13:23:41;;;;;;;7.43;2.78;;;;;;;29.46;34.91;100653.56;4777459;30;20492;-78
2021/06/15 13:26:50;;;;;;;5.80;2.50;;;;;;;29.55;34.93;100649.28;4772082;30;20059;-77
2021/06/15 13:29:55;;;;;;;10.57;2.83;;;;;;;29.50;34.81;100645.63;4771945;30;20062;-82
2021/06/15 13:33:02;;;;;;;7.38;2.35;;;;;;;29.45;34.45;100648.31;4782548;30;20059;-82
2021/06/15 13:36:07;;;;;;;5.38;2.35;;;;;;;29.43;34.67;100645.78;4789040;30;20078;-83
2021/06/15 13:39:17;;;;;;;4.10;2.40;;;;;;;29.56;35.55;100650.97;4789451;30;20062;-82
2021/06/15 13:42:26;;;;;;;7.43;2.75;;;;;;;29.64;35.37;100647.81;4789293;30;20054;-83
2021/06/15 13:45:35;;;;;;;4.55;2.50;;;;;;;29.71;34.93;100636.53;4789190;30;20067;-83
2021/06/15 13:48:40;;;;;;;5.07;2.35;;;;;;;29.65;34.42;100638.38;4789126;30;20067;-83
2021/06/15 13:51:45;;;;;;;7.43;3.20;;;;;;;29.61;34.83;100639.16;4788934;30;20054;-82
2021/06/15 13:54:49;;;;;;;6.63;2.42;;;;;;;29.68;35.95;100634.28;4789026;30;20062;-83
2021/06/15 13:57:54;;;;;;;4.45;2.75;;;;;;;29.63;34.44;100634.19;4788772;30;20074;-80
2021/06/15 14:00:58;;;;;;;7.13;2.80;;;;;;;29.77;35.44;100623.63;4789156;30;20400;-82
2021/06/15 14:04:03;;;;;;;4.70;2.63;;;;;;;29.79;35.60;100625.09;4789520;30;20050;-83
2021/06/15 14:07:08;;;;;;;9.02;2.85;;;;;;;29.85;35.24;100621.28;4777994;30;20051;-81
2021/06/15 14:10:15;;;;;;;5.40;2.50;;;;;;;29.75;35.06;100609.22;4789071;30;20062;-79
2021/06/15 14:13:21;;;;;;;8.35;2.85;;;;;;;29.67;35.00;100606.88;4788805;30;20427;-80
2021/06/15 14:16:26;;;;;;;4.22;2.85;;;;;;;29.71;34.63;100606.09;4788988;30;20078;-80
2021/06/15 14:19:30;;;;;;;3.63;2.42;;;;;;;29.68;35.39;100606.59;4788798;30;20058;-80
2021/06/15 14:22:36;;;;;;;5.18;2.58;;;;;;;29.76;35.73;100606.19;4787948;30;20058;-77
2021/06/15 14:25:42;;;;;;;3.92;2.50;;;;;;;29.83;35.89;100612.41;4788578;30;20063;-80
2021/06/15 14:28:46;;;;;;;6.35;2.70;;;;;;;29.80;35.31;100596.31;4788955;30;20055;-77
2021/06/15 14:31:50;;;;;;;7.97;2.85;;;;;;;29.90;34.78;100590.91;4788534;30;20054;-78
2021/06/15 14:34:55;;;;;;;7.70;3.30;;;;;;;29.95;34.93;100593.75;4787811;29;20059;-78
2021/06/15 14:38:02;;;;;;;5.70;2.45;;;;;;;29.94;35.67;100586.56;4788784;30;20054;-77